sensor_id;sensor_type;location;lat;lon;timestamp;temperature;humidity
13606;DHT22;6874;52.084;5.090;2022-11-12T00:01:12;8.00;99.90
13606;DHT22;6874;52.084;5.090;2022-11-12T00:03:37;8.00;99.90
13606;DHT22;6874;52.084;5.090;2022-11-12T00:06:03;8.00;99.90
13606;DHT22;6874;52.084;5.090;2022-11-12T00:08:28;8.00;99.90
13606;DHT22;6874;52.084;5.090;2022-11-12T00:10:54;8.00;99.90
13606;DHT22;6874;52.084;5.090;2022-11-12T00:13:19;8.00;99.90
13606;DHT22;6874;52.084;5.090;2022-11-12T00:15:45;8.00;99.90
13606;DHT22;6874;52.084;5.090;2022-11-12T00:18:11;7.90;99.90
13606;DHT22;6874;52.084;5.090;2022-11-12T00:20:37;7.90;99.90
13606;DHT22;6874;52.084;5.090;2022-11-12T00:23:02;7.90;99.90
13606;DHT22;6874;52.084;5.090;2022-11-12T00:25:28;7.90;99.90
13606;DHT22;6874;52.084;5.090;2022-11-12T00:28:00;7.90;99.90
13606;DHT22;6874;52.084;5.090;2022-11-12T00:30:26;7.90;99.90
13606;DHT22;6874;52.084;5.090;2022-11-12T00:32:52;7.90;99.90
13606;DHT22;6874;52.084;5.090;2022-11-12T00:35:17;7.90;99.90
13606;DHT22;6874;52.084;5.090;2022-11-12T00:37:43;7.90;99.90
13606;DHT22;6874;52.084;5.090;2022-11-12T00:40:08;7.90;99.90
13606;DHT22;6874;52.084;5.090;2022-11-12T00:42:35;7.90;99.90
13606;DHT22;6874;52.084;5.090;2022-11-12T00:45:00;7.80;99.90
13606;DHT22;6874;52.084;5.090;2022-11-12T00:47:26;7.80;99.90
13606;DHT22;6874;52.084;5.090;2022-11-12T00:49:52;7.80;99.90
13606;DHT22;6874;52.084;5.090;2022-11-12T00:52:17;7.80;99.90
13606;DHT22;6874;52.084;5.090;2022-11-12T00:54:42;7.80;99.90
13606;DHT22;6874;52.084;5.090;2022-11-12T00:57:08;7.80;99.90
13606;DHT22;6874;52.084;5.090;2022-11-12T00:59:34;7.80;99.90
13606;DHT22;6874;52.084;5.090;2022-11-12T01:01:59;7.70;99.90
13606;DHT22;6874;52.084;5.090;2022-11-12T01:04:25;7.70;99.90
13606;DHT22;6874;52.084;5.090;2022-11-12T01:06:51;7.70;99.90
13606;DHT22;6874;52.084;5.090;2022-11-12T01:09:16;7.70;99.90
13606;DHT22;6874;52.084;5.090;2022-11-12T01:11:42;7.70;99.90
13606;DHT22;6874;52.084;5.090;2022-11-12T01:14:08;7.70;99.90
13606;DHT22;6874;52.084;5.090;2022-11-12T01:16:37;7.60;99.90
13606;DHT22;6874;52.084;5.090;2022-11-12T01:19:05;7.60;99.90
13606;DHT22;6874;52.084;5.090;2022-11-12T01:21:31;7.60;99.90
13606;DHT22;6874;52.084;5.090;2022-11-12T01:23:58;7.60;99.90
13606;DHT22;6874;52.084;5.090;2022-11-12T01:26:25;7.50;99.90
13606;DHT22;6874;52.084;5.090;2022-11-12T01:28:53;7.50;99.90
13606;DHT22;6874;52.084;5.090;2022-11-12T01:31:22;7.50;99.90
13606;DHT22;6874;52.084;5.090;2022-11-12T01:33:52;7.50;99.90
13606;DHT22;6874;52.084;5.090;2022-11-12T01:36:18;7.50;99.90
13606;DHT22;6874;52.084;5.090;2022-11-12T01:38:45;7.50;99.90
13606;DHT22;6874;52.084;5.090;2022-11-12T01:41:17;7.50;99.90
13606;DHT22;6874;52.084;5.090;2022-11-12T01:43:43;7.40;99.90
13606;DHT22;6874;52.084;5.090;2022-11-12T01:46:19;7.40;99.90
13606;DHT22;6874;52.084;5.090;2022-11-12T01:48:51;7.40;99.90
13606;DHT22;6874;52.084;5.090;2022-11-12T01:51:22;7.40;99.90
13606;DHT22;6874;52.084;5.090;2022-11-12T01:53:52;7.40;99.90
13606;DHT22;6874;52.084;5.090;2022-11-12T01:56:21;7.40;99.90
13606;DHT22;6874;52.084;5.090;2022-11-12T01:58:49;7.40;99.90
13606;DHT22;6874;52.084;5.090;2022-11-12T02:01:16;7.40;99.90
13606;DHT22;6874;52.084;5.090;2022-11-12T02:03:42;7.40;99.90
13606;DHT22;6874;52.084;5.090;2022-11-12T02:06:10;7.40;99.90
13606;DHT22;6874;52.084;5.090;2022-11-12T02:08:37;7.40;99.90
13606;DHT22;6874;52.084;5.090;2022-11-12T02:11:13;7.40;99.90
13606;DHT22;6874;52.084;5.090;2022-11-12T02:13:40;7.40;99.90
13606;DHT22;6874;52.084;5.090;2022-11-12T02:18:52;7.40;99.90
13606;DHT22;6874;52.084;5.090;2022-11-12T02:21:22;7.40;99.90
13606;DHT22;6874;52.084;5.090;2022-11-12T02:26:40;7.40;99.90
13606;DHT22;6874;52.084;5.090;2022-11-12T02:29:07;7.40;99.90
13606;DHT22;6874;52.084;5.090;2022-11-12T02:31:33;7.50;99.90
13606;DHT22;6874;52.084;5.090;2022-11-12T02:33:58;7.40;99.90
13606;DHT22;6874;52.084;5.090;2022-11-12T02:36:24;7.50;99.90
13606;DHT22;6874;52.084;5.090;2022-11-12T02:38:51;7.50;99.90
13606;DHT22;6874;52.084;5.090;2022-11-12T02:41:16;7.50;99.90
13606;DHT22;6874;52.084;5.090;2022-11-12T02:43:43;7.50;99.90
13606;DHT22;6874;52.084;5.090;2022-11-12T02:46:08;7.50;99.90
13606;DHT22;6874;52.084;5.090;2022-11-12T02:48:34;7.50;99.90
13606;DHT22;6874;52.084;5.090;2022-11-12T02:51:00;7.50;99.90
13606;DHT22;6874;52.084;5.090;2022-11-12T02:53:25;7.50;99.90
13606;DHT22;6874;52.084;5.090;2022-11-12T02:55:51;7.50;99.90
13606;DHT22;6874;52.084;5.090;2022-11-12T02:58:16;7.50;99.90
13606;DHT22;6874;52.084;5.090;2022-11-12T03:00:42;7.50;99.90
13606;DHT22;6874;52.084;5.090;2022-11-12T03:03:08;7.50;99.90
13606;DHT22;6874;52.084;5.090;2022-11-12T03:05:34;7.50;99.90
13606;DHT22;6874;52.084;5.090;2022-11-12T03:08:06;7.60;99.90
13606;DHT22;6874;52.084;5.090;2022-11-12T03:10:33;7.60;99.90
13606;DHT22;6874;52.084;5.090;2022-11-12T03:12:59;7.60;99.90
13606;DHT22;6874;52.084;5.090;2022-11-12T03:15:26;7.60;99.90
13606;DHT22;6874;52.084;5.090;2022-11-12T03:17:52;7.60;99.90
13606;DHT22;6874;52.084;5.090;2022-11-12T03:20:18;7.60;99.90
13606;DHT22;6874;52.084;5.090;2022-11-12T03:22:57;7.60;99.90
13606;DHT22;6874;52.084;5.090;2022-11-12T03:25:24;7.60;99.90
13606;DHT22;6874;52.084;5.090;2022-11-12T03:27:56;7.60;99.90
13606;DHT22;6874;52.084;5.090;2022-11-12T03:30:24;7.60;99.90
13606;DHT22;6874;52.084;5.090;2022-11-12T03:32:49;7.70;99.90
13606;DHT22;6874;52.084;5.090;2022-11-12T03:35:15;7.60;99.90
13606;DHT22;6874;52.084;5.090;2022-11-12T03:37:40;7.60;99.90
13606;DHT22;6874;52.084;5.090;2022-11-12T03:40:06;7.60;99.90
13606;DHT22;6874;52.084;5.090;2022-11-12T03:42:32;7.60;99.90
13606;DHT22;6874;52.084;5.090;2022-11-12T03:44:57;7.70;99.90
13606;DHT22;6874;52.084;5.090;2022-11-12T03:47:23;7.70;99.90
13606;DHT22;6874;52.084;5.090;2022-11-12T03:49:48;7.70;99.90
13606;DHT22;6874;52.084;5.090;2022-11-12T03:52:14;7.70;99.90
13606;DHT22;6874;52.084;5.090;2022-11-12T03:54:39;7.70;99.90
13606;DHT22;6874;52.084;5.090;2022-11-12T03:57:05;7.70;99.90
13606;DHT22;6874;52.084;5.090;2022-11-12T03:59:30;7.70;99.90
13606;DHT22;6874;52.084;5.090;2022-11-12T04:01:56;7.70;99.90
13606;DHT22;6874;52.084;5.090;2022-11-12T04:04:21;7.70;99.90
13606;DHT22;6874;52.084;5.090;2022-11-12T04:06:47;7.70;99.90
13606;DHT22;6874;52.084;5.090;2022-11-12T04:09:31;7.60;99.90
13606;DHT22;6874;52.084;5.090;2022-11-12T04:11:56;7.60;99.90
13606;DHT22;6874;52.084;5.090;2022-11-12T04:14:42;7.60;99.90
13606;DHT22;6874;52.084;5.090;2022-11-12T04:17:07;7.60;99.90
13606;DHT22;6874;52.084;5.090;2022-11-12T04:19:51;7.60;99.90
13606;DHT22;6874;52.084;5.090;2022-11-12T04:22:35;7.60;99.90
13606;DHT22;6874;52.084;5.090;2022-11-12T04:25:01;7.50;99.90
13606;DHT22;6874;52.084;5.090;2022-11-12T04:27:44;7.50;99.90
13606;DHT22;6874;52.084;5.090;2022-11-12T04:30:10;7.50;99.90
13606;DHT22;6874;52.084;5.090;2022-11-12T04:32:48;7.50;99.90
13606;DHT22;6874;52.084;5.090;2022-11-12T04:35:14;7.50;99.90
13606;DHT22;6874;52.084;5.090;2022-11-12T04:37:40;7.40;99.90
13606;DHT22;6874;52.084;5.090;2022-11-12T04:40:25;7.40;99.90
13606;DHT22;6874;52.084;5.090;2022-11-12T04:43:12;7.40;99.90
13606;DHT22;6874;52.084;5.090;2022-11-12T04:45:57;7.40;99.90
13606;DHT22;6874;52.084;5.090;2022-11-12T04:48:23;7.40;99.90
13606;DHT22;6874;52.084;5.090;2022-11-12T04:50:53;7.40;99.90
13606;DHT22;6874;52.084;5.090;2022-11-12T04:53:19;7.40;99.90
13606;DHT22;6874;52.084;5.090;2022-11-12T04:55:51;7.30;99.90
13606;DHT22;6874;52.084;5.090;2022-11-12T04:58:17;7.30;99.90
13606;DHT22;6874;52.084;5.090;2022-11-12T05:00:43;7.30;99.90
13606;DHT22;6874;52.084;5.090;2022-11-12T05:03:09;7.30;99.90
13606;DHT22;6874;52.084;5.090;2022-11-12T05:05:34;7.20;99.90
13606;DHT22;6874;52.084;5.090;2022-11-12T05:08:00;7.20;99.90
13606;DHT22;6874;52.084;5.090;2022-11-12T05:10:26;7.30;99.90
13606;DHT22;6874;52.084;5.090;2022-11-12T05:12:52;7.20;99.90
13606;DHT22;6874;52.084;5.090;2022-11-12T05:15:17;7.20;99.90
13606;DHT22;6874;52.084;5.090;2022-11-12T05:17:43;7.20;99.90
13606;DHT22;6874;52.084;5.090;2022-11-12T05:20:10;7.10;99.90
13606;DHT22;6874;52.084;5.090;2022-11-12T05:22:37;7.10;99.90
13606;DHT22;6874;52.084;5.090;2022-11-12T05:25:03;7.10;99.90
13606;DHT22;6874;52.084;5.090;2022-11-12T05:27:28;7.10;99.90
13606;DHT22;6874;52.084;5.090;2022-11-12T05:29:54;7.10;99.90
13606;DHT22;6874;52.084;5.090;2022-11-12T05:32:19;7.00;99.90
13606;DHT22;6874;52.084;5.090;2022-11-12T05:34:45;7.00;99.90
13606;DHT22;6874;52.084;5.090;2022-11-12T05:37:11;7.00;99.90
13606;DHT22;6874;52.084;5.090;2022-11-12T05:39:37;7.00;99.90
13606;DHT22;6874;52.084;5.090;2022-11-12T05:42:03;7.00;99.90
13606;DHT22;6874;52.084;5.090;2022-11-12T05:44:29;7.00;99.90
13606;DHT22;6874;52.084;5.090;2022-11-12T05:46:54;6.90;99.90
13606;DHT22;6874;52.084;5.090;2022-11-12T05:49:20;6.90;99.90
13606;DHT22;6874;52.084;5.090;2022-11-12T05:51:46;6.90;99.90
13606;DHT22;6874;52.084;5.090;2022-11-12T05:54:12;6.90;99.90
13606;DHT22;6874;52.084;5.090;2022-11-12T05:56:37;6.80;99.90
13606;DHT22;6874;52.084;5.090;2022-11-12T05:59:06;6.80;99.90
13606;DHT22;6874;52.084;5.090;2022-11-12T06:01:33;6.80;99.90
13606;DHT22;6874;52.084;5.090;2022-11-12T06:04:02;6.80;99.90
13606;DHT22;6874;52.084;5.090;2022-11-12T06:06:28;6.80;99.90
13606;DHT22;6874;52.084;5.090;2022-11-12T06:08:54;6.80;99.90
13606;DHT22;6874;52.084;5.090;2022-11-12T06:11:19;6.70;99.90
13606;DHT22;6874;52.084;5.090;2022-11-12T06:13:45;6.70;99.90
13606;DHT22;6874;52.084;5.090;2022-11-12T06:16:11;6.70;99.90
13606;DHT22;6874;52.084;5.090;2022-11-12T06:18:36;6.70;99.90
13606;DHT22;6874;52.084;5.090;2022-11-12T06:21:07;6.60;99.90
13606;DHT22;6874;52.084;5.090;2022-11-12T06:23:54;6.60;99.90
13606;DHT22;6874;52.084;5.090;2022-11-12T06:26:20;6.60;99.90
13606;DHT22;6874;52.084;5.090;2022-11-12T06:28:47;6.60;99.90
13606;DHT22;6874;52.084;5.090;2022-11-12T06:31:13;6.60;99.90
13606;DHT22;6874;52.084;5.090;2022-11-12T06:33:39;6.60;99.90
13606;DHT22;6874;52.084;5.090;2022-11-12T06:36:05;6.50;99.90
13606;DHT22;6874;52.084;5.090;2022-11-12T06:38:35;6.50;99.90
13606;DHT22;6874;52.084;5.090;2022-11-12T06:41:01;6.50;99.90
13606;DHT22;6874;52.084;5.090;2022-11-12T06:43:29;6.50;99.90
13606;DHT22;6874;52.084;5.090;2022-11-12T06:46:01;6.50;99.90
13606;DHT22;6874;52.084;5.090;2022-11-12T06:48:28;6.50;99.90
13606;DHT22;6874;52.084;5.090;2022-11-12T06:50:55;6.50;99.90
13606;DHT22;6874;52.084;5.090;2022-11-12T06:53:21;6.40;99.90
13606;DHT22;6874;52.084;5.090;2022-11-12T06:55:46;6.40;99.90
13606;DHT22;6874;52.084;5.090;2022-11-12T06:58:12;6.40;99.90
13606;DHT22;6874;52.084;5.090;2022-11-12T07:00:37;6.40;99.90
13606;DHT22;6874;52.084;5.090;2022-11-12T07:03:07;6.40;99.90
13606;DHT22;6874;52.084;5.090;2022-11-12T07:05:37;6.30;99.90
13606;DHT22;6874;52.084;5.090;2022-11-12T07:08:04;6.30;99.90
13606;DHT22;6874;52.084;5.090;2022-11-12T07:10:30;6.30;99.90
13606;DHT22;6874;52.084;5.090;2022-11-12T07:12:56;6.30;99.90
13606;DHT22;6874;52.084;5.090;2022-11-12T07:15:21;6.30;99.90
13606;DHT22;6874;52.084;5.090;2022-11-12T07:17:47;6.30;99.90
13606;DHT22;6874;52.084;5.090;2022-11-12T07:20:12;6.30;99.90
13606;DHT22;6874;52.084;5.090;2022-11-12T07:22:38;6.30;99.90
13606;DHT22;6874;52.084;5.090;2022-11-12T07:25:04;6.20;99.90
13606;DHT22;6874;52.084;5.090;2022-11-12T07:27:30;6.30;99.90
13606;DHT22;6874;52.084;5.090;2022-11-12T07:29:56;6.20;99.90
13606;DHT22;6874;52.084;5.090;2022-11-12T07:32:21;6.20;99.90
13606;DHT22;6874;52.084;5.090;2022-11-12T07:34:47;6.20;99.90
13606;DHT22;6874;52.084;5.090;2022-11-12T07:37:12;6.20;99.90
13606;DHT22;6874;52.084;5.090;2022-11-12T07:39:38;6.20;99.90
13606;DHT22;6874;52.084;5.090;2022-11-12T07:42:03;6.20;99.90
13606;DHT22;6874;52.084;5.090;2022-11-12T07:44:29;6.10;99.90
13606;DHT22;6874;52.084;5.090;2022-11-12T07:46:55;6.20;99.90
13606;DHT22;6874;52.084;5.090;2022-11-12T07:49:20;6.20;99.90
13606;DHT22;6874;52.084;5.090;2022-11-12T07:51:46;6.20;99.90
13606;DHT22;6874;52.084;5.090;2022-11-12T07:54:11;6.20;99.90
13606;DHT22;6874;52.084;5.090;2022-11-12T07:56:37;6.20;99.90
13606;DHT22;6874;52.084;5.090;2022-11-12T07:59:03;6.10;99.90
13606;DHT22;6874;52.084;5.090;2022-11-12T08:01:39;6.20;99.90
13606;DHT22;6874;52.084;5.090;2022-11-12T08:04:08;6.10;99.90
13606;DHT22;6874;52.084;5.090;2022-11-12T08:06:34;6.10;99.90
13606;DHT22;6874;52.084;5.090;2022-11-12T08:09:03;6.10;99.90
13606;DHT22;6874;52.084;5.090;2022-11-12T08:11:29;6.10;99.90
13606;DHT22;6874;52.084;5.090;2022-11-12T08:13:55;6.10;99.90
13606;DHT22;6874;52.084;5.090;2022-11-12T08:16:21;6.10;99.90
13606;DHT22;6874;52.084;5.090;2022-11-12T08:18:47;6.10;99.90
13606;DHT22;6874;52.084;5.090;2022-11-12T08:21:15;6.10;99.90
13606;DHT22;6874;52.084;5.090;2022-11-12T08:23:41;6.10;99.90
13606;DHT22;6874;52.084;5.090;2022-11-12T08:26:10;6.10;99.90
13606;DHT22;6874;52.084;5.090;2022-11-12T08:28:36;6.20;99.90
13606;DHT22;6874;52.084;5.090;2022-11-12T08:31:07;6.10;99.90
13606;DHT22;6874;52.084;5.090;2022-11-12T08:33:33;6.10;99.90
13606;DHT22;6874;52.084;5.090;2022-11-12T08:36:07;6.20;99.90
13606;DHT22;6874;52.084;5.090;2022-11-12T08:38:33;6.20;99.90
13606;DHT22;6874;52.084;5.090;2022-11-12T08:41:04;6.10;99.90
13606;DHT22;6874;52.084;5.090;2022-11-12T08:43:30;6.20;99.90
13606;DHT22;6874;52.084;5.090;2022-11-12T08:46:00;6.10;99.90
13606;DHT22;6874;52.084;5.090;2022-11-12T08:48:26;6.20;99.90
13606;DHT22;6874;52.084;5.090;2022-11-12T08:50:52;6.20;99.90
13606;DHT22;6874;52.084;5.090;2022-11-12T08:53:20;6.10;99.90
13606;DHT22;6874;52.084;5.090;2022-11-12T08:55:46;6.20;99.90
13606;DHT22;6874;52.084;5.090;2022-11-12T08:58:12;6.20;99.90
13606;DHT22;6874;52.084;5.090;2022-11-12T09:00:40;6.20;99.90
13606;DHT22;6874;52.084;5.090;2022-11-12T09:03:07;6.20;99.90
13606;DHT22;6874;52.084;5.090;2022-11-12T09:05:36;6.20;99.90
13606;DHT22;6874;52.084;5.090;2022-11-12T09:08:04;6.20;99.90
13606;DHT22;6874;52.084;5.090;2022-11-12T09:10:30;6.20;99.90
13606;DHT22;6874;52.084;5.090;2022-11-12T09:12:56;6.30;99.90
13606;DHT22;6874;52.084;5.090;2022-11-12T09:15:23;6.20;99.90
13606;DHT22;6874;52.084;5.090;2022-11-12T09:18:03;6.30;99.90
13606;DHT22;6874;52.084;5.090;2022-11-12T09:20:29;6.30;99.90
13606;DHT22;6874;52.084;5.090;2022-11-12T09:23:01;6.30;99.90
13606;DHT22;6874;52.084;5.090;2022-11-12T09:25:26;6.30;99.90
13606;DHT22;6874;52.084;5.090;2022-11-12T09:27:53;6.30;99.90
13606;DHT22;6874;52.084;5.090;2022-11-12T09:30:18;6.30;99.90
13606;DHT22;6874;52.084;5.090;2022-11-12T09:32:44;6.30;99.90
13606;DHT22;6874;52.084;5.090;2022-11-12T09:35:09;6.30;99.90
13606;DHT22;6874;52.084;5.090;2022-11-12T09:37:38;6.30;99.90
13606;DHT22;6874;52.084;5.090;2022-11-12T09:40:05;6.40;99.90
13606;DHT22;6874;52.084;5.090;2022-11-12T09:42:33;6.40;99.90
13606;DHT22;6874;52.084;5.090;2022-11-12T09:45:07;6.40;99.90
13606;DHT22;6874;52.084;5.090;2022-11-12T09:47:43;6.40;99.90
13606;DHT22;6874;52.084;5.090;2022-11-12T09:53:06;6.50;99.90
13606;DHT22;6874;52.084;5.090;2022-11-12T09:55:43;6.50;99.90
13606;DHT22;6874;52.084;5.090;2022-11-12T09:58:11;6.50;99.90
13606;DHT22;6874;52.084;5.090;2022-11-12T10:00:40;6.50;99.90
13606;DHT22;6874;52.084;5.090;2022-11-12T10:03:25;6.60;99.90
13606;DHT22;6874;52.084;5.090;2022-11-12T10:05:59;6.60;99.90
13606;DHT22;6874;52.084;5.090;2022-11-12T10:08:57;6.60;99.90
13606;DHT22;6874;52.084;5.090;2022-11-12T10:14:47;6.70;99.90
13606;DHT22;6874;52.084;5.090;2022-11-12T10:17:36;6.70;99.90
13606;DHT22;6874;52.084;5.090;2022-11-12T10:20:20;6.70;99.90
13606;DHT22;6874;52.084;5.090;2022-11-12T10:25:27;6.80;99.90
13606;DHT22;6874;52.084;5.090;2022-11-12T10:27:54;6.80;99.90
13606;DHT22;6874;52.084;5.090;2022-11-12T10:30:22;6.80;99.90
13606;DHT22;6874;52.084;5.090;2022-11-12T10:32:50;6.80;99.90
13606;DHT22;6874;52.084;5.090;2022-11-12T10:35:20;6.90;99.90
13606;DHT22;6874;52.084;5.090;2022-11-12T10:38:04;6.90;99.90
13606;DHT22;6874;52.084;5.090;2022-11-12T10:40:37;6.90;99.90
13606;DHT22;6874;52.084;5.090;2022-11-12T10:43:20;7.00;99.90
13606;DHT22;6874;52.084;5.090;2022-11-12T10:45:48;7.00;99.90
13606;DHT22;6874;52.084;5.090;2022-11-12T10:48:24;7.00;99.90
13606;DHT22;6874;52.084;5.090;2022-11-12T10:50:52;7.00;99.90
13606;DHT22;6874;52.084;5.090;2022-11-12T10:53:47;7.10;99.90
13606;DHT22;6874;52.084;5.090;2022-11-12T10:56:30;7.10;99.90
13606;DHT22;6874;52.084;5.090;2022-11-12T10:59:12;7.10;99.90
13606;DHT22;6874;52.084;5.090;2022-11-12T11:01:38;7.20;99.90
13606;DHT22;6874;52.084;5.090;2022-11-12T11:04:08;7.20;99.90
13606;DHT22;6874;52.084;5.090;2022-11-12T11:06:39;7.20;99.90
13606;DHT22;6874;52.084;5.090;2022-11-12T11:09:16;7.30;99.90
13606;DHT22;6874;52.084;5.090;2022-11-12T11:11:50;7.30;99.90
13606;DHT22;6874;52.084;5.090;2022-11-12T11:14:26;7.30;99.90
13606;DHT22;6874;52.084;5.090;2022-11-12T11:17:00;7.40;99.90
13606;DHT22;6874;52.084;5.090;2022-11-12T11:19:40;7.40;99.90
13606;DHT22;6874;52.084;5.090;2022-11-12T11:22:15;7.40;99.90
13606;DHT22;6874;52.084;5.090;2022-11-12T11:27:50;7.50;99.90
13606;DHT22;6874;52.084;5.090;2022-11-12T11:30:19;7.50;99.90
13606;DHT22;6874;52.084;5.090;2022-11-12T11:44:06;7.70;99.90
13606;DHT22;6874;52.084;5.090;2022-11-12T11:47:02;7.80;99.90
13606;DHT22;6874;52.084;5.090;2022-11-12T11:52:39;8.00;99.90
13606;DHT22;6874;52.084;5.090;2022-11-12T11:58:17;8.00;99.90
13606;DHT22;6874;52.084;5.090;2022-11-12T12:06:19;8.10;99.90
13606;DHT22;6874;52.084;5.090;2022-11-12T12:09:04;8.10;99.90
13606;DHT22;6874;52.084;5.090;2022-11-12T12:14:56;8.20;99.90
13606;DHT22;6874;52.084;5.090;2022-11-12T12:20:17;8.30;99.90
13606;DHT22;6874;52.084;5.090;2022-11-12T12:22:51;8.30;99.90
13606;DHT22;6874;52.084;5.090;2022-11-12T12:25:26;8.40;99.90
13606;DHT22;6874;52.084;5.090;2022-11-12T12:28:20;8.50;99.90
13606;DHT22;6874;52.084;5.090;2022-11-12T12:30:51;8.50;99.90
13606;DHT22;6874;52.084;5.090;2022-11-12T12:33:35;8.60;99.90
13606;DHT22;6874;52.084;5.090;2022-11-12T12:38:34;8.70;99.90
13606;DHT22;6874;52.084;5.090;2022-11-12T12:41:29;8.80;99.90
13606;DHT22;6874;52.084;5.090;2022-11-12T12:44:03;8.90;99.90
13606;DHT22;6874;52.084;5.090;2022-11-12T12:46:31;8.90;99.90
13606;DHT22;6874;52.084;5.090;2022-11-12T12:48:59;9.00;99.90
13606;DHT22;6874;52.084;5.090;2022-11-12T12:51:29;9.10;99.90
13606;DHT22;6874;52.084;5.090;2022-11-12T12:53:55;9.20;99.90
13606;DHT22;6874;52.084;5.090;2022-11-12T12:58:56;9.40;99.90
13606;DHT22;6874;52.084;5.090;2022-11-12T13:06:14;9.70;99.90
13606;DHT22;6874;52.084;5.090;2022-11-12T13:08:41;9.80;99.90
13606;DHT22;6874;52.084;5.090;2022-11-12T13:11:07;9.90;99.90
13606;DHT22;6874;52.084;5.090;2022-11-12T13:13:35;10.00;99.90
13606;DHT22;6874;52.084;5.090;2022-11-12T13:16:01;10.00;99.90
13606;DHT22;6874;52.084;5.090;2022-11-12T13:21:19;10.30;99.90
13606;DHT22;6874;52.084;5.090;2022-11-12T13:26:43;10.40;99.90
13606;DHT22;6874;52.084;5.090;2022-11-12T13:34:49;10.70;99.90
13606;DHT22;6874;52.084;5.090;2022-11-12T13:37:20;10.70;99.90
13606;DHT22;6874;52.084;5.090;2022-11-12T13:39:47;10.80;99.90
13606;DHT22;6874;52.084;5.090;2022-11-12T13:42:15;10.80;99.90
13606;DHT22;6874;52.084;5.090;2022-11-12T13:45:00;10.80;99.90
13606;DHT22;6874;52.084;5.090;2022-11-12T13:47:26;10.80;99.90
13606;DHT22;6874;52.084;5.090;2022-11-12T13:49:55;10.90;99.90
13606;DHT22;6874;52.084;5.090;2022-11-12T13:52:24;10.90;99.90
13606;DHT22;6874;52.084;5.090;2022-11-12T13:55:06;10.90;99.90
13606;DHT22;6874;52.084;5.090;2022-11-12T13:57:32;10.90;99.90
13606;DHT22;6874;52.084;5.090;2022-11-12T14:00:23;10.90;99.90
13606;DHT22;6874;52.084;5.090;2022-11-12T14:03:01;10.90;99.90
13606;DHT22;6874;52.084;5.090;2022-11-12T14:05:33;11.00;99.90
13606;DHT22;6874;52.084;5.090;2022-11-12T14:21:12;11.00;99.90
13606;DHT22;6874;52.084;5.090;2022-11-12T14:23:40;11.00;99.90
13606;DHT22;6874;52.084;5.090;2022-11-12T14:26:10;11.10;99.90
13606;DHT22;6874;52.084;5.090;2022-11-12T14:28:36;11.00;99.90
13606;DHT22;6874;52.084;5.090;2022-11-12T14:31:12;11.00;99.90
13606;DHT22;6874;52.084;5.090;2022-11-12T14:33:38;11.10;99.90
13606;DHT22;6874;52.084;5.090;2022-11-12T14:36:12;11.10;99.90
13606;DHT22;6874;52.084;5.090;2022-11-12T14:38:39;11.10;99.90
13606;DHT22;6874;52.084;5.090;2022-11-12T14:41:09;11.10;99.90
13606;DHT22;6874;52.084;5.090;2022-11-12T14:43:47;11.10;99.90
13606;DHT22;6874;52.084;5.090;2022-11-12T14:46:48;11.10;99.90
13606;DHT22;6874;52.084;5.090;2022-11-12T14:49:31;11.10;99.90
13606;DHT22;6874;52.084;5.090;2022-11-12T14:52:04;11.10;99.90
13606;DHT22;6874;52.084;5.090;2022-11-12T14:54:35;11.10;99.90
13606;DHT22;6874;52.084;5.090;2022-11-12T14:57:03;11.10;99.90
13606;DHT22;6874;52.084;5.090;2022-11-12T14:59:30;11.10;99.90
13606;DHT22;6874;52.084;5.090;2022-11-12T15:02:08;11.10;99.90
13606;DHT22;6874;52.084;5.090;2022-11-12T15:04:42;11.00;99.90
13606;DHT22;6874;52.084;5.090;2022-11-12T15:07:27;11.10;99.90
13606;DHT22;6874;52.084;5.090;2022-11-12T15:09:53;11.00;99.90
13606;DHT22;6874;52.084;5.090;2022-11-12T15:12:32;11.00;99.90
13606;DHT22;6874;52.084;5.090;2022-11-12T15:15:08;11.00;99.90
13606;DHT22;6874;52.084;5.090;2022-11-12T15:17:35;11.00;99.90
13606;DHT22;6874;52.084;5.090;2022-11-12T15:20:11;11.00;99.90
13606;DHT22;6874;52.084;5.090;2022-11-12T15:22:37;11.00;99.90
13606;DHT22;6874;52.084;5.090;2022-11-12T15:25:25;11.00;99.90
13606;DHT22;6874;52.084;5.090;2022-11-12T15:27:51;11.00;99.90
13606;DHT22;6874;52.084;5.090;2022-11-12T15:30:28;11.00;99.90
13606;DHT22;6874;52.084;5.090;2022-11-12T15:33:16;10.90;99.90
13606;DHT22;6874;52.084;5.090;2022-11-12T15:35:43;10.90;99.90
13606;DHT22;6874;52.084;5.090;2022-11-12T15:38:17;10.90;99.90
13606;DHT22;6874;52.084;5.090;2022-11-12T15:40:45;10.90;99.90
13606;DHT22;6874;52.084;5.090;2022-11-12T15:43:16;10.80;99.90
13606;DHT22;6874;52.084;5.090;2022-11-12T15:45:47;10.90;99.90
13606;DHT22;6874;52.084;5.090;2022-11-12T15:48:13;10.90;99.90
13606;DHT22;6874;52.084;5.090;2022-11-12T15:50:38;10.90;99.90
13606;DHT22;6874;52.084;5.090;2022-11-12T15:53:04;10.90;99.90
13606;DHT22;6874;52.084;5.090;2022-11-12T15:55:31;10.90;99.90
13606;DHT22;6874;52.084;5.090;2022-11-12T15:57:57;10.80;99.90
13606;DHT22;6874;52.084;5.090;2022-11-12T16:00:31;10.80;99.90
13606;DHT22;6874;52.084;5.090;2022-11-12T16:03:07;10.80;99.90
13606;DHT22;6874;52.084;5.090;2022-11-12T16:05:35;10.70;99.90
13606;DHT22;6874;52.084;5.090;2022-11-12T16:08:00;10.80;99.90
13606;DHT22;6874;52.084;5.090;2022-11-12T16:10:26;10.70;99.90
13606;DHT22;6874;52.084;5.090;2022-11-12T16:12:57;10.70;99.90
13606;DHT22;6874;52.084;5.090;2022-11-12T16:15:24;10.70;99.90
13606;DHT22;6874;52.084;5.090;2022-11-12T16:17:50;10.70;99.90
13606;DHT22;6874;52.084;5.090;2022-11-12T16:22:47;10.60;99.90
13606;DHT22;6874;52.084;5.090;2022-11-12T16:25:13;10.60;99.90
13606;DHT22;6874;52.084;5.090;2022-11-12T16:27:39;10.60;99.90
13606;DHT22;6874;52.084;5.090;2022-11-12T16:30:23;10.60;99.90
13606;DHT22;6874;52.084;5.090;2022-11-12T16:32:48;10.60;99.90
13606;DHT22;6874;52.084;5.090;2022-11-12T16:35:15;10.50;99.90
13606;DHT22;6874;52.084;5.090;2022-11-12T16:37:44;10.50;99.90
13606;DHT22;6874;52.084;5.090;2022-11-12T16:40:19;10.50;99.90
13606;DHT22;6874;52.084;5.090;2022-11-12T16:42:45;10.40;99.90
13606;DHT22;6874;52.084;5.090;2022-11-12T16:45:16;10.40;99.90
13606;DHT22;6874;52.084;5.090;2022-11-12T16:47:44;10.40;99.90
13606;DHT22;6874;52.084;5.090;2022-11-12T16:50:16;10.40;99.90
13606;DHT22;6874;52.084;5.090;2022-11-12T16:52:42;10.40;99.90
13606;DHT22;6874;52.084;5.090;2022-11-12T16:55:08;10.30;99.90
13606;DHT22;6874;52.084;5.090;2022-11-12T16:57:34;10.30;99.90
13606;DHT22;6874;52.084;5.090;2022-11-12T16:59:59;10.30;99.90
13606;DHT22;6874;52.084;5.090;2022-11-12T17:02:25;10.30;99.90
13606;DHT22;6874;52.084;5.090;2022-11-12T17:04:51;10.20;99.90
13606;DHT22;6874;52.084;5.090;2022-11-12T17:07:16;10.20;99.90
13606;DHT22;6874;52.084;5.090;2022-11-12T17:09:42;10.20;99.90
13606;DHT22;6874;52.084;5.090;2022-11-12T17:12:08;10.20;99.90
13606;DHT22;6874;52.084;5.090;2022-11-12T17:14:34;10.20;99.90
13606;DHT22;6874;52.084;5.090;2022-11-12T17:16:59;10.10;99.90
13606;DHT22;6874;52.084;5.090;2022-11-12T17:19:25;10.10;99.90
13606;DHT22;6874;52.084;5.090;2022-11-12T17:21:51;10.10;99.90
13606;DHT22;6874;52.084;5.090;2022-11-12T17:24:16;10.10;99.90
13606;DHT22;6874;52.084;5.090;2022-11-12T17:26:43;10.00;99.90
13606;DHT22;6874;52.084;5.090;2022-11-12T17:29:09;10.00;99.90
13606;DHT22;6874;52.084;5.090;2022-11-12T17:31:35;10.00;99.90
13606;DHT22;6874;52.084;5.090;2022-11-12T17:34:03;10.00;99.90